Merksplas, Belgium
Current Conditions -  °F | °C
As of 10:17 AM on Wednesday 28 Jan 2015 (Local Time) from EHGR Reporting Station
Drizzle Drizzle  
Wind Chill:   Ceiling: 800
Heat Index:   Visibility: 1.7mi
Dew Point:   Wind: 15mph
Humidity: 93%   Direction: 210°SSW
Pressure: 29.77"   Gusts: NA
Location:  51.36°N, 4.87°E
Report Text: EHGR 280917Z AUTO 21013KT 2800 R28/P3000 DZ SCT007 BKN008 OVC010 06/05 Q1008 YLO 21015G25KT 9999 SCT025 BKN030 TEMPO 4500 -RADZ SCT008 BKN010
Loading
Personal Weather Stations






























Interactive Weather Map New forecast layout! Learn more

10-Day Weather Forecast

Advertisements
Track Severe Weather on mobile